createdAt,value
2023-02-14T00:00:34.817Z,1.31
2023-02-14T00:03:01.722Z,1.32
2023-02-14T00:05:28.487Z,1.31
2023-02-14T00:07:55.244Z,1.28
2023-02-14T00:10:21.985Z,1.25
2023-02-14T00:12:48.712Z,1.23
2023-02-14T00:15:25.900Z,1.21
2023-02-14T00:17:54.793Z,1.19
2023-02-14T00:20:22.791Z,1.19
2023-02-14T00:22:49.610Z,1.18
2023-02-14T00:25:16.425Z,1.17
2023-02-14T00:27:43.409Z,1.14
2023-02-14T00:30:11.101Z,1.14
2023-02-14T00:32:39.557Z,1.14
2023-02-14T00:35:07.304Z,1.14
2023-02-14T00:37:34.136Z,1.12
2023-02-14T00:40:00.847Z,1.12
2023-02-14T00:42:27.749Z,1.11
2023-02-14T00:44:54.560Z,1.12
2023-02-14T00:47:21.499Z,1.11
2023-02-14T00:49:48.411Z,1.08
2023-02-14T00:52:15.273Z,1.04
2023-02-14T00:54:42.057Z,1.05
2023-02-14T00:57:08.919Z,1.05
2023-02-14T00:59:36.290Z,1.03
2023-02-14T01:02:04.122Z,1.02
2023-02-14T01:04:30.940Z,1.03
2023-02-14T01:06:57.800Z,1.05
2023-02-14T01:09:24.537Z,1.06
2023-02-14T01:11:51.361Z,1.07
2023-02-14T01:14:18.250Z,1.06
2023-02-14T01:16:45.270Z,1.06
2023-02-14T01:19:30.965Z,1.06
2023-02-14T01:22:16.618Z,1.06
2023-02-14T01:24:43.939Z,1.04
2023-02-14T01:27:10.618Z,1.03
2023-02-14T01:29:37.492Z,1.03
2023-02-14T01:32:04.359Z,1.03
2023-02-14T01:34:31.466Z,1.01
2023-02-14T01:36:58.392Z,1.00
2023-02-14T01:39:25.198Z,0.99
2023-02-14T01:41:54.043Z,1.00
2023-02-14T01:44:26.845Z,1.00
2023-02-14T01:46:54.076Z,0.99
2023-02-14T01:49:25.803Z,0.99
2023-02-14T01:52:12.873Z,0.99
2023-02-14T01:54:41.590Z,1.01
2023-02-14T01:57:12.479Z,1.00
2023-02-14T01:59:42.236Z,0.98
2023-02-14T02:02:09.838Z,0.99
2023-02-14T02:04:39.047Z,0.98
2023-02-14T02:07:07.648Z,1.00
2023-02-14T02:09:42.520Z,1.03
2023-02-14T02:12:09.819Z,1.08
2023-02-14T02:14:37.105Z,1.14
2023-02-14T02:17:06.994Z,1.16
2023-02-14T02:19:51.097Z,1.19
2023-02-14T02:22:38.764Z,1.19
2023-02-14T02:25:28.588Z,1.13
2023-02-14T02:28:31.012Z,1.11
2023-02-14T02:30:58.265Z,1.10
2023-02-14T02:33:28.533Z,1.12
2023-02-14T02:36:03.362Z,1.13
2023-02-14T02:38:52.064Z,1.15
2023-02-14T02:41:27.883Z,1.13
2023-02-14T02:44:03.770Z,1.11
2023-02-14T02:46:50.080Z,1.11
2023-02-14T02:49:49.281Z,1.12
2023-02-14T02:52:54.984Z,1.13
2023-02-14T02:55:25.053Z,1.10
2023-02-14T02:57:54.237Z,1.07
2023-02-14T03:00:22.561Z,1.02
2023-02-14T03:03:10.189Z,0.99
2023-02-14T03:05:37.026Z,0.94
2023-02-14T03:08:04.924Z,0.93
2023-02-14T03:10:34.129Z,0.94
2023-02-14T03:13:10.949Z,0.94
2023-02-14T03:15:53.155Z,0.96
2023-02-14T03:18:20.101Z,0.97
2023-02-14T03:20:47.444Z,0.95
2023-02-14T03:23:21.034Z,0.98
2023-02-14T03:25:48.174Z,0.97
2023-02-14T03:28:39.028Z,0.95
2023-02-14T03:31:29.420Z,0.95
2023-02-14T03:34:11.024Z,0.95
2023-02-14T03:36:41.413Z,0.97
2023-02-14T03:39:16.354Z,0.96
2023-02-14T03:41:46.659Z,0.95
2023-02-14T03:44:18.030Z,0.96
2023-02-14T03:46:53.672Z,0.95
2023-02-14T03:49:23.867Z,0.91
2023-02-14T03:51:52.476Z,0.88
2023-02-14T03:54:20.026Z,0.88
2023-02-14T03:56:49.709Z,0.89
2023-02-14T03:59:24.845Z,0.87
2023-02-14T04:01:54.729Z,0.88
2023-02-14T04:04:24.436Z,0.88
2023-02-14T04:06:51.501Z,0.86
2023-02-14T04:09:18.396Z,0.84
2023-02-14T04:11:46.650Z,0.80
2023-02-14T04:14:13.604Z,0.77
2023-02-14T04:16:59.715Z,0.77
2023-02-14T04:19:26.664Z,0.76
2023-02-14T04:21:53.591Z,0.75
2023-02-14T04:24:20.835Z,0.76
2023-02-14T04:27:06.244Z,0.75
2023-02-14T04:29:33.021Z,0.77
2023-02-14T04:32:00.050Z,0.79
2023-02-14T04:34:26.975Z,0.83
2023-02-14T04:36:53.963Z,0.86
2023-02-14T04:39:20.937Z,0.84
2023-02-14T04:41:47.754Z,0.82
2023-02-14T04:44:14.837Z,0.80
2023-02-14T04:46:41.915Z,0.78
2023-02-14T04:49:11.710Z,0.75
2023-02-14T04:51:38.546Z,0.75
2023-02-14T04:54:05.348Z,0.76
2023-02-14T04:56:38.552Z,0.78
2023-02-14T04:59:10.582Z,0.83
2023-02-14T05:01:37.474Z,0.84
2023-02-14T05:04:04.445Z,0.87
2023-02-14T05:06:31.333Z,0.89
2023-02-14T05:09:23.918Z,0.89
2023-02-14T05:11:50.806Z,0.90
2023-02-14T05:14:17.531Z,0.90
2023-02-14T05:16:44.380Z,0.90
2023-02-14T05:19:17.891Z,0.89
2023-02-14T05:21:47.487Z,0.87
2023-02-14T05:24:14.314Z,0.88
2023-02-14T05:26:41.187Z,0.87
2023-02-14T05:29:08.269Z,0.87
2023-02-14T05:31:36.284Z,0.88
2023-02-14T05:34:07.819Z,0.90
2023-02-14T05:36:44.233Z,0.92
2023-02-14T05:39:23.679Z,0.97
2023-02-14T05:41:55.172Z,1.02
2023-02-14T05:44:22.377Z,1.06
2023-02-14T05:46:49.331Z,1.08
2023-02-14T05:49:16.086Z,1.10
2023-02-14T05:51:42.929Z,1.11
2023-02-14T05:54:11.073Z,1.13
2023-02-14T05:56:38.348Z,1.13
2023-02-14T05:59:05.190Z,1.12
2023-02-14T06:01:32.166Z,1.10
2023-02-14T06:03:58.963Z,1.10
2023-02-14T06:06:25.884Z,1.11
2023-02-14T06:08:52.663Z,1.12
2023-02-14T06:11:19.464Z,1.15
2023-02-14T06:13:46.195Z,1.18
2023-02-14T06:16:13.011Z,1.20
2023-02-14T06:18:39.927Z,1.23
2023-02-14T06:21:06.762Z,1.29
2023-02-14T06:23:33.522Z,1.34
2023-02-14T06:26:00.394Z,1.38
2023-02-14T06:28:27.158Z,1.40
2023-02-14T06:30:53.998Z,1.41
2023-02-14T06:33:20.823Z,1.43
2023-02-14T06:35:47.609Z,1.45
2023-02-14T06:38:14.486Z,1.44
2023-02-14T06:40:41.282Z,1.49
2023-02-14T06:43:08.149Z,1.48
2023-02-14T06:45:35.059Z,1.49
2023-02-14T06:48:01.870Z,1.49
2023-02-14T06:50:28.743Z,1.45
2023-02-14T06:52:55.795Z,1.41
2023-02-14T06:55:22.695Z,1.40
2023-02-14T06:57:49.494Z,1.38
2023-02-14T07:00:16.505Z,1.35
2023-02-14T07:02:43.562Z,1.33
2023-02-14T07:05:10.524Z,1.31
2023-02-14T07:07:37.462Z,1.33
2023-02-14T07:10:04.628Z,1.40
2023-02-14T07:12:31.514Z,1.50
2023-02-14T07:14:58.403Z,1.59
2023-02-14T07:17:25.359Z,1.63
2023-02-14T07:19:52.411Z,1.63
2023-02-14T07:22:19.236Z,1.59
2023-02-14T07:24:46.211Z,1.52
2023-02-14T07:27:13.019Z,1.45
2023-02-14T07:29:39.864Z,1.42
2023-02-14T07:32:06.909Z,1.46
2023-02-14T07:34:33.777Z,1.55
2023-02-14T07:37:01.229Z,1.63
2023-02-14T07:39:28.117Z,1.68
2023-02-14T07:41:57.467Z,1.70
2023-02-14T07:44:26.626Z,1.68
2023-02-14T07:46:53.450Z,1.62
2023-02-14T07:49:20.351Z,1.59
2023-02-14T07:51:47.544Z,1.54
2023-02-14T07:54:14.459Z,1.51
2023-02-14T07:56:41.231Z,1.51
2023-02-14T07:59:08.099Z,1.54
2023-02-14T08:01:34.948Z,1.57
2023-02-14T08:04:02.275Z,1.55
2023-02-14T08:06:29.600Z,1.48
2023-02-14T08:08:56.750Z,1.50
2023-02-14T08:11:42.978Z,1.55
2023-02-14T08:14:10.122Z,1.52
2023-02-14T08:16:40.038Z,1.44
2023-02-14T08:19:07.320Z,1.36
2023-02-14T08:21:34.685Z,1.31
2023-02-14T08:24:01.998Z,1.31
2023-02-14T08:26:32.756Z,1.33
2023-02-14T08:29:01.630Z,1.33
2023-02-14T08:31:35.600Z,1.32
2023-02-14T08:34:04.346Z,1.31
2023-02-14T08:36:32.437Z,1.31
2023-02-14T08:38:59.286Z,1.26
2023-02-14T08:41:26.257Z,1.17
2023-02-14T08:43:53.587Z,1.09
2023-02-14T08:46:22.331Z,1.04
2023-02-14T08:48:50.299Z,1.06
2023-02-14T08:51:17.060Z,1.10
2023-02-14T08:53:44.344Z,1.19
2023-02-14T08:56:12.742Z,1.30
2023-02-14T08:58:41.007Z,1.34
2023-02-14T09:01:09.032Z,1.35
2023-02-14T09:03:38.266Z,1.39
2023-02-14T09:06:06.439Z,1.43
2023-02-14T09:08:35.244Z,1.47
2023-02-14T09:11:16.276Z,1.50
2023-02-14T09:13:43.325Z,1.62
2023-02-14T09:16:11.413Z,1.78
2023-02-14T09:18:38.707Z,1.97
2023-02-14T09:21:10.209Z,2.09
2023-02-14T09:23:37.740Z,2.24
2023-02-14T09:26:06.005Z,2.31
2023-02-14T09:28:32.939Z,2.36
2023-02-14T09:31:07.951Z,2.38
2023-02-14T09:33:34.883Z,2.39
2023-02-14T09:36:20.788Z,2.37
2023-02-14T09:38:47.636Z,2.35
2023-02-14T09:41:29.698Z,2.33
2023-02-14T09:44:06.377Z,2.29
2023-02-14T09:46:37.113Z,2.34
2023-02-14T09:49:04.039Z,2.40
2023-02-14T09:51:31.885Z,2.39
2023-02-14T09:54:19.431Z,2.40
2023-02-14T09:57:02.838Z,2.38
2023-02-14T09:59:34.543Z,2.31
2023-02-14T10:02:16.090Z,2.25
2023-02-14T10:04:50.003Z,2.24
2023-02-14T10:07:35.655Z,2.24
2023-02-14T10:10:02.600Z,2.23
2023-02-14T10:12:32.129Z,2.18
2023-02-14T10:15:01.243Z,2.12
2023-02-14T10:17:35.343Z,2.03
2023-02-14T10:20:05.977Z,1.96
2023-02-14T10:22:41.945Z,1.94
2023-02-14T10:25:29.237Z,1.92
2023-02-14T10:27:58.403Z,1.93
2023-02-14T10:30:26.086Z,1.94
2023-02-14T10:33:13.336Z,1.95
2023-02-14T10:35:59.736Z,1.95
2023-02-14T10:38:40.943Z,1.95
2023-02-14T10:41:43.461Z,1.96
2023-02-14T10:44:26.373Z,1.99
2023-02-14T10:47:04.690Z,2.04
2023-02-14T10:49:45.907Z,2.10
2023-02-14T10:52:21.830Z,2.19
2023-02-14T10:55:06.211Z,2.25
2023-02-14T10:57:35.999Z,2.28
2023-02-14T11:00:07.034Z,2.32
2023-02-14T11:02:40.280Z,2.33
2023-02-14T11:05:07.871Z,2.35
2023-02-14T11:07:34.810Z,2.38
2023-02-14T11:10:01.785Z,2.40
2023-02-14T11:12:40.310Z,2.39
2023-02-14T11:15:21.280Z,2.36
2023-02-14T11:17:48.763Z,2.33
2023-02-14T11:20:19.181Z,2.30
2023-02-14T11:22:46.543Z,2.27
2023-02-14T11:25:21.629Z,2.20
2023-02-14T11:27:51.167Z,2.13
2023-02-14T11:30:20.648Z,2.08
2023-02-14T11:32:52.791Z,2.05
2023-02-14T11:35:24.400Z,2.04
2023-02-14T11:37:52.062Z,1.96
2023-02-14T11:40:30.942Z,1.90
2023-02-14T11:43:17.597Z,1.94
2023-02-14T11:45:48.461Z,2.00
2023-02-14T11:48:37.894Z,2.08
2023-02-14T11:51:11.106Z,2.21
2023-02-14T11:54:00.830Z,2.31
2023-02-14T11:56:43.418Z,2.37
2023-02-14T11:59:12.717Z,2.42
2023-02-14T12:01:39.593Z,2.51
2023-02-14T12:04:12.473Z,2.56
2023-02-14T12:06:39.425Z,2.55
2023-02-14T12:09:24.860Z,2.54
2023-02-14T12:11:56.659Z,2.53
2023-02-14T12:14:24.498Z,2.54
2023-02-14T12:17:17.742Z,2.55
2023-02-14T12:19:54.884Z,2.46
2023-02-14T12:22:33.116Z,2.45
2023-02-14T12:25:13.915Z,2.38
2023-02-14T12:27:46.127Z,2.27
2023-02-14T12:30:15.884Z,2.24
2023-02-14T12:32:51.762Z,2.19
2023-02-14T12:35:33.578Z,2.14
2023-02-14T12:38:04.923Z,2.14
2023-02-14T12:40:34.908Z,2.16
2023-02-14T12:43:20.684Z,2.18
2023-02-14T12:45:49.089Z,2.21
2023-02-14T12:48:16.742Z,2.23
2023-02-14T12:51:02.954Z,2.21
2023-02-14T12:53:37.941Z,2.18
2023-02-14T12:56:11.271Z,2.16
2023-02-14T12:58:41.078Z,2.07
2023-02-14T13:01:32.813Z,2.03
2023-02-14T13:04:17.526Z,1.94
2023-02-14T13:06:58.180Z,1.92
2023-02-14T13:09:38.166Z,1.95
2023-02-14T13:12:13.880Z,1.97
2023-02-14T13:14:44.016Z,1.95
2023-02-14T13:17:40.521Z,1.96
2023-02-14T13:20:08.794Z,1.95
2023-02-14T13:22:36.748Z,1.90
2023-02-14T13:25:06.903Z,1.84
2023-02-14T13:27:37.708Z,1.80
2023-02-14T13:30:07.020Z,1.80
2023-02-14T13:32:40.827Z,1.79
2023-02-14T13:35:08.512Z,1.79
2023-02-14T13:37:36.887Z,1.80
2023-02-14T13:40:09.656Z,1.79
2023-02-14T13:42:49.925Z,1.78
2023-02-14T13:48:38.017Z,1.72
2023-02-14T13:51:11.267Z,1.65
2023-02-14T13:53:38.350Z,1.60
2023-02-14T13:56:17.730Z,1.52
2023-02-14T13:58:52.376Z,1.47
2023-02-14T14:01:31.810Z,1.45
2023-02-14T14:04:06.940Z,1.42
2023-02-14T14:06:53.581Z,1.40
2023-02-14T14:09:48.570Z,1.39
2023-02-14T14:12:24.943Z,1.35
2023-02-14T14:15:07.309Z,1.35
2023-02-14T14:17:41.467Z,1.35
2023-02-14T14:20:24.062Z,1.32
2023-02-14T14:22:58.371Z,1.29
2023-02-14T14:25:52.986Z,1.26
2023-02-14T14:28:23.200Z,1.22
2023-02-14T14:30:52.496Z,1.19
2023-02-14T14:33:31.308Z,1.19
2023-02-14T14:36:05.565Z,1.18
2023-02-14T14:38:34.083Z,1.20
2023-02-14T14:41:02.328Z,1.22
2023-02-14T14:43:32.048Z,1.23
2023-02-14T14:46:00.929Z,1.23
2023-02-14T14:48:34.316Z,1.23
2023-02-14T14:51:01.264Z,1.23
2023-02-14T14:53:40.785Z,1.20
2023-02-14T14:56:12.256Z,1.16
2023-02-14T14:58:42.086Z,1.14
2023-02-14T15:01:18.026Z,1.12
2023-02-14T15:03:47.494Z,1.11
2023-02-14T15:06:14.520Z,1.12
2023-02-14T15:08:41.520Z,1.11
2023-02-14T15:11:09.080Z,1.09
2023-02-14T15:13:54.078Z,1.07
2023-02-14T15:16:23.910Z,1.08
2023-02-14T15:18:53.091Z,1.06
2023-02-14T15:21:20.210Z,1.04
2023-02-14T15:23:47.466Z,1.02
2023-02-14T15:26:19.023Z,1.03
2023-02-14T15:28:55.270Z,1.02
2023-02-14T15:31:22.909Z,0.99
2023-02-14T15:36:35.411Z,0.80
2023-02-14T15:39:07.740Z,0.73
2023-02-14T15:41:35.940Z,0.63
2023-02-14T15:44:04.211Z,0.55
2023-02-14T15:46:54.558Z,0.49
2023-02-14T15:49:42.877Z,0.43
2023-02-14T15:52:14.364Z,0.44
2023-02-14T15:54:47.898Z,0.42
2023-02-14T15:57:30.752Z,0.42
2023-02-14T15:59:58.122Z,0.42
2023-02-14T16:02:30.802Z,0.44
2023-02-14T16:05:09.086Z,0.44
2023-02-14T16:07:36.751Z,0.46
2023-02-14T16:10:24.976Z,0.48
2023-02-14T16:13:26.459Z,0.49
2023-02-14T16:15:59.673Z,0.51
2023-02-14T16:18:55.804Z,0.55
2023-02-14T16:22:17.885Z,0.56
2023-02-14T16:28:28.589Z,0.59
2023-02-14T16:30:57.421Z,0.58
2023-02-14T16:33:26.568Z,0.58
2023-02-14T16:35:54.788Z,0.58
2023-02-14T16:38:31.422Z,0.57
2023-02-14T16:41:03.607Z,0.55
2023-02-14T16:43:31.234Z,0.57
2023-02-14T16:45:58.906Z,0.58
2023-02-14T16:48:28.946Z,0.61
2023-02-14T16:50:57.018Z,0.59
2023-02-14T16:53:27.942Z,0.63
2023-02-14T16:55:57.017Z,0.64
2023-02-14T17:01:18.122Z,0.64
2023-02-14T17:03:47.967Z,0.64
2023-02-14T17:06:17.292Z,0.60
2023-02-14T17:08:45.956Z,0.61
2023-02-14T17:11:13.767Z,0.61
2023-02-14T17:13:50.147Z,0.65
2023-02-14T17:16:20.270Z,0.66
2023-02-14T17:18:51.304Z,0.66
2023-02-14T17:21:24.291Z,0.64
2023-02-14T17:23:54.543Z,0.64
2023-02-14T17:26:26.342Z,0.64
2023-02-14T17:28:53.885Z,0.64
2023-02-14T17:31:21.428Z,0.64
2023-02-14T17:33:49.342Z,0.64
2023-02-14T17:36:17.930Z,0.60
2023-02-14T17:38:48.023Z,0.57
2023-02-14T17:41:21.965Z,0.57
2023-02-14T17:43:50.350Z,0.56
2023-02-14T17:46:21.595Z,0.55
2023-02-14T17:48:55.932Z,0.55
2023-02-14T17:51:33.281Z,0.56
2023-02-14T17:54:00.831Z,0.57
2023-02-14T17:56:34.445Z,0.51
2023-02-14T17:59:11.949Z,0.56
2023-02-14T18:01:39.281Z,0.52
2023-02-14T18:04:08.987Z,0.51
2023-02-14T18:06:37.497Z,0.50
2023-02-14T18:09:08.928Z,0.52
2023-02-14T18:11:47.566Z,0.50
2023-02-14T18:14:19.166Z,0.43
2023-02-14T18:16:49.877Z,0.32
2023-02-14T18:19:21.999Z,0.15
2023-02-14T18:21:49.260Z,0.04
2023-02-14T18:24:20.675Z,-0.03
2023-02-14T18:26:50.987Z,-0.09
2023-02-14T18:29:18.201Z,-0.14
2023-02-14T18:31:48.161Z,-0.12
2023-02-14T18:34:44.052Z,-0.14
2023-02-14T18:38:20.195Z,-0.19
2023-02-14T18:41:37.732Z,-0.23
2023-02-14T18:48:34.875Z,-0.33
2023-02-14T18:51:09.614Z,-0.37
2023-02-14T18:53:37.487Z,-0.39
2023-02-14T18:56:09.676Z,-0.40
2023-02-14T18:58:36.857Z,-0.39
2023-02-14T19:01:08.419Z,-0.39
2023-02-14T19:03:35.366Z,-0.38
2023-02-14T19:06:04.219Z,-0.39
2023-02-14T19:08:33.279Z,-0.39
2023-02-14T19:11:00.749Z,-0.38
2023-02-14T19:13:29.608Z,-0.41
2023-02-14T19:15:56.948Z,-0.42
2023-02-14T19:18:25.694Z,-0.43
2023-02-14T19:20:53.007Z,-0.47
2023-02-14T19:23:23.328Z,-0.48
2023-02-14T19:25:52.290Z,-0.50
2023-02-14T19:28:19.296Z,-0.51
2023-02-14T19:30:46.219Z,-0.53
2023-02-14T19:33:16.623Z,-0.55
2023-02-14T19:35:44.126Z,-0.56
2023-02-14T19:38:15.194Z,-0.60
2023-02-14T19:40:45.342Z,-0.63
2023-02-14T19:43:17.706Z,-0.63
2023-02-14T19:45:44.938Z,-0.66
2023-02-14T19:48:12.384Z,-0.67
2023-02-14T19:50:39.566Z,-0.66
2023-02-14T19:53:06.485Z,-0.64
2023-02-14T19:55:33.413Z,-0.66
2023-02-14T19:58:00.692Z,-0.71
2023-02-14T20:00:28.357Z,-0.73
2023-02-14T20:02:55.437Z,-0.76
2023-02-14T20:05:23.801Z,-0.81
2023-02-14T20:07:56.586Z,-0.85
2023-02-14T20:10:23.717Z,-0.88
2023-02-14T20:12:50.794Z,-0.93
2023-02-14T20:15:18.014Z,-0.95
2023-02-14T20:17:45.205Z,-0.99
2023-02-14T20:20:13.976Z,-1.04
2023-02-14T20:22:41.086Z,-1.06
2023-02-14T20:25:10.144Z,-1.06
2023-02-14T20:27:37.753Z,-1.06
2023-02-14T20:30:05.785Z,-1.06
2023-02-14T20:32:34.001Z,-1.11
2023-02-14T20:35:01.199Z,-1.12
2023-02-14T20:37:30.779Z,-1.14
2023-02-14T20:39:58.300Z,-1.13
2023-02-14T20:42:26.029Z,-1.16
2023-02-14T20:44:53.602Z,-1.16
2023-02-14T20:47:20.696Z,-1.17
2023-02-14T20:49:47.790Z,-1.18
2023-02-14T20:52:15.049Z,-1.16
2023-02-14T20:54:42.388Z,-1.19
2023-02-14T20:57:09.487Z,-1.20
2023-02-14T20:59:44.855Z,-1.19
2023-02-14T21:02:12.518Z,-1.18
2023-02-14T21:04:44.189Z,-1.19
2023-02-14T21:07:18.710Z,-1.19
2023-02-14T21:09:48.183Z,-1.21
2023-02-14T21:12:42.969Z,-1.21
2023-02-14T21:15:18.248Z,-1.20
2023-02-14T21:17:45.439Z,-1.18
2023-02-14T21:20:12.633Z,-1.17
2023-02-14T21:22:50.180Z,-1.17
2023-02-14T21:25:17.143Z,-1.16
2023-02-14T21:27:46.512Z,-1.17
2023-02-14T21:30:13.862Z,-1.19
2023-02-14T21:32:40.917Z,-1.20
2023-02-14T21:35:11.974Z,-1.24
2023-02-14T21:37:39.157Z,-1.27
2023-02-14T21:40:06.936Z,-1.30
2023-02-14T21:42:33.941Z,-1.29
2023-02-14T21:45:19.592Z,-1.31
2023-02-14T21:48:06.440Z,-1.29
2023-02-14T21:50:33.957Z,-1.29
2023-02-14T21:53:01.180Z,-1.30
2023-02-14T21:55:28.094Z,-1.30
2023-02-14T21:57:55.054Z,-1.33
2023-02-14T22:00:23.926Z,-1.35
2023-02-14T22:02:51.146Z,-1.40
2023-02-14T22:05:19.704Z,-1.38
2023-02-14T22:07:52.122Z,-1.37
2023-02-14T22:10:19.446Z,-1.36
2023-02-14T22:12:46.621Z,-1.35
2023-02-14T22:15:13.702Z,-1.34
2023-02-14T22:17:40.965Z,-1.32
2023-02-14T22:20:10.498Z,-1.33
2023-02-14T22:22:37.484Z,-1.32
2023-02-14T22:25:04.584Z,-1.33
2023-02-14T22:27:31.767Z,-1.38
2023-02-14T22:29:59.051Z,-1.40
2023-02-14T22:32:27.124Z,-1.42
2023-02-14T22:34:57.936Z,-1.44
2023-02-14T22:37:25.096Z,-1.44
2023-02-14T22:39:52.134Z,-1.45
2023-02-14T22:42:19.207Z,-1.45
2023-02-14T22:44:47.416Z,-1.45
2023-02-14T22:47:14.447Z,-1.47
2023-02-14T22:49:42.279Z,-1.47
2023-02-14T22:52:10.091Z,-1.48
2023-02-14T22:54:37.261Z,-1.49
2023-02-14T22:57:07.011Z,-1.48
2023-02-14T22:59:37.299Z,-1.48
2023-02-14T23:02:05.297Z,-1.48
2023-02-14T23:04:32.904Z,-1.46
2023-02-14T23:07:02.260Z,-1.47
2023-02-14T23:09:29.409Z,-1.45
2023-02-14T23:11:56.554Z,-1.44
2023-02-14T23:14:43.281Z,-1.44
2023-02-14T23:17:33.516Z,-1.41
2023-02-14T23:20:19.293Z,-1.45
2023-02-14T23:22:46.257Z,-1.49
2023-02-14T23:25:13.400Z,-1.52
2023-02-14T23:27:45.179Z,-1.52
2023-02-14T23:30:17.885Z,-1.53
2023-02-14T23:32:45.800Z,-1.54
2023-02-14T23:35:13.161Z,-1.54
2023-02-14T23:37:42.207Z,-1.53
2023-02-14T23:40:12.673Z,-1.54
2023-02-14T23:42:39.644Z,-1.54
2023-02-14T23:45:25.179Z,-1.54
2023-02-14T23:48:01.412Z,-1.56
2023-02-14T23:50:28.586Z,-1.57
2023-02-14T23:52:55.966Z,-1.57
2023-02-14T23:55:23.360Z,-1.58
2023-02-14T23:57:50.389Z,-1.58
